sensor_id;sensor_type;location;lat;lon;timestamp;pressure;altitude;pressure_sealevel;temperature;humidity
59110;BME280;44895;47.438;18.978;2023-03-18T00:01:46;100565.47;;;1.28;100.00
59110;BME280;44895;47.438;18.978;2023-03-18T00:04:50;100564.78;;;1.14;100.00
59110;BME280;44895;47.438;18.978;2023-03-18T00:07:55;100562.56;;;1.30;100.00
59110;BME280;44895;47.438;18.978;2023-03-18T00:10:59;100558.25;;;1.29;100.00
59110;BME280;44895;47.438;18.978;2023-03-18T00:14:02;100548.63;;;1.46;100.00
59110;BME280;44895;47.438;18.978;2023-03-18T00:17:06;100534.47;;;1.39;100.00
59110;BME280;44895;47.438;18.978;2023-03-18T00:20:10;100542.00;;;1.49;100.00
59110;BME280;44895;47.438;18.978;2023-03-18T00:23:15;100544.84;;;1.36;100.00
59110;BME280;44895;47.438;18.978;2023-03-18T00:26:18;100535.00;;;1.29;100.00
59110;BME280;44895;47.438;18.978;2023-03-18T00:29:22;100533.09;;;1.55;100.00
59110;BME280;44895;47.438;18.978;2023-03-18T00:32:27;100534.03;;;1.79;100.00
59110;BME280;44895;47.438;18.978;2023-03-18T00:35:31;100531.81;;;1.58;100.00
59110;BME280;44895;47.438;18.978;2023-03-18T00:38:37;100536.22;;;1.52;100.00
59110;BME280;44895;47.438;18.978;2023-03-18T00:41:40;100532.78;;;1.82;100.00
59110;BME280;44895;47.438;18.978;2023-03-18T00:44:44;100527.50;;;1.75;99.45
59110;BME280;44895;47.438;18.978;2023-03-18T00:47:48;100529.53;;;1.80;100.00
59110;BME280;44895;47.438;18.978;2023-03-18T00:50:52;100527.03;;;1.78;100.00
59110;BME280;44895;47.438;18.978;2023-03-18T00:53:57;100525.81;;;1.62;100.00
59110;BME280;44895;47.438;18.978;2023-03-18T00:57:01;100520.31;;;1.57;100.00
59110;BME280;44895;47.438;18.978;2023-03-18T01:00:05;100524.91;;;1.69;100.00
59110;BME280;44895;47.438;18.978;2023-03-18T01:03:09;100527.72;;;1.55;100.00
59110;BME280;44895;47.438;18.978;2023-03-18T01:06:14;100515.00;;;1.51;100.00
59110;BME280;44895;47.438;18.978;2023-03-18T01:09:18;100510.84;;;1.55;100.00
59110;BME280;44895;47.438;18.978;2023-03-18T01:12:22;100507.78;;;1.70;100.00
59110;BME280;44895;47.438;18.978;2023-03-18T01:15:25;100509.72;;;1.44;100.00
59110;BME280;44895;47.438;18.978;2023-03-18T01:18:29;100510.03;;;1.36;100.00
59110;BME280;44895;47.438;18.978;2023-03-18T01:21:33;100507.34;;;1.36;100.00
59110;BME280;44895;47.438;18.978;2023-03-18T01:24:38;100498.41;;;1.42;100.00
59110;BME280;44895;47.438;18.978;2023-03-18T01:27:41;100504.94;;;1.27;100.00
59110;BME280;44895;47.438;18.978;2023-03-18T01:30:45;100498.22;;;1.43;100.00
59110;BME280;44895;47.438;18.978;2023-03-18T01:33:51;100493.56;;;1.13;100.00
59110;BME280;44895;47.438;18.978;2023-03-18T01:36:55;100484.88;;;1.37;100.00
59110;BME280;44895;47.438;18.978;2023-03-18T01:40:02;100481.25;;;1.50;98.17
59110;BME280;44895;47.438;18.978;2023-03-18T01:46:33;100475.91;;;1.31;100.00
59110;BME280;44895;47.438;18.978;2023-03-18T01:49:46;100469.81;;;1.42;97.62
59110;BME280;44895;47.438;18.978;2023-03-18T01:52:53;100472.53;;;1.54;94.71
59110;BME280;44895;47.438;18.978;2023-03-18T01:55:58;100464.50;;;2.03;88.85
59110;BME280;44895;47.438;18.978;2023-03-18T01:59:04;100473.91;;;1.94;87.07
59110;BME280;44895;47.438;18.978;2023-03-18T02:02:12;100473.44;;;2.27;84.75
59110;BME280;44895;47.438;18.978;2023-03-18T02:05:18;100477.50;;;1.88;86.29
59110;BME280;44895;47.438;18.978;2023-03-18T02:08:22;100476.88;;;2.04;86.08
59110;BME280;44895;47.438;18.978;2023-03-18T02:11:26;100472.00;;;2.13;86.93
59110;BME280;44895;47.438;18.978;2023-03-18T02:14:34;100468.34;;;2.38;82.65
59110;BME280;44895;47.438;18.978;2023-03-18T02:17:43;100471.78;;;2.15;83.07
59110;BME280;44895;47.438;18.978;2023-03-18T02:24:15;100463.97;;;2.13;83.47
59110;BME280;44895;47.438;18.978;2023-03-18T02:27:25;100459.16;;;2.03;84.71
59110;BME280;44895;47.438;18.978;2023-03-18T02:30:40;100464.41;;;2.10;82.71
59110;BME280;44895;47.438;18.978;2023-03-18T02:33:47;100472.00;;;1.64;85.37
59110;BME280;44895;47.438;18.978;2023-03-18T02:36:51;100468.47;;;2.01;86.46
59110;BME280;44895;47.438;18.978;2023-03-18T02:39:54;100466.38;;;2.03;86.85
59110;BME280;44895;47.438;18.978;2023-03-18T02:43:20;100469.00;;;1.91;85.15
59110;BME280;44895;47.438;18.978;2023-03-18T02:49:33;100474.22;;;2.16;80.62
59110;BME280;44895;47.438;18.978;2023-03-18T02:52:37;100469.06;;;2.03;81.93
59110;BME280;44895;47.438;18.978;2023-03-18T02:55:41;100467.81;;;2.17;80.54
59110;BME280;44895;47.438;18.978;2023-03-18T02:58:45;100464.50;;;2.03;83.63
59110;BME280;44895;47.438;18.978;2023-03-18T03:01:51;100474.72;;;1.94;83.46
59110;BME280;44895;47.438;18.978;2023-03-18T03:04:55;100471.88;;;1.77;85.10
59110;BME280;44895;47.438;18.978;2023-03-18T03:07:58;100467.41;;;1.71;86.54
59110;BME280;44895;47.438;18.978;2023-03-18T03:11:03;100473.72;;;1.21;91.42
59110;BME280;44895;47.438;18.978;2023-03-18T03:14:09;100468.38;;;1.58;91.83
59110;BME280;44895;47.438;18.978;2023-03-18T03:17:14;100479.31;;;1.20;93.25
59110;BME280;44895;47.438;18.978;2023-03-18T03:20:20;100475.63;;;1.14;93.35
59110;BME280;44895;47.438;18.978;2023-03-18T03:23:24;100478.97;;;0.91;96.56
59110;BME280;44895;47.438;18.978;2023-03-18T03:26:27;100485.72;;;0.93;98.18
59110;BME280;44895;47.438;18.978;2023-03-18T03:29:31;100484.31;;;0.91;100.00
59110;BME280;44895;47.438;18.978;2023-03-18T03:32:35;100482.88;;;0.88;100.00
59110;BME280;44895;47.438;18.978;2023-03-18T03:35:38;100486.91;;;0.97;100.00
59110;BME280;44895;47.438;18.978;2023-03-18T03:38:42;100485.13;;;0.91;100.00
59110;BME280;44895;47.438;18.978;2023-03-18T03:41:46;100495.94;;;1.03;100.00
59110;BME280;44895;47.438;18.978;2023-03-18T03:44:52;100496.16;;;0.76;100.00
59110;BME280;44895;47.438;18.978;2023-03-18T03:47:56;100498.94;;;0.88;100.00
59110;BME280;44895;47.438;18.978;2023-03-18T03:51:00;100500.97;;;0.93;100.00
59110;BME280;44895;47.438;18.978;2023-03-18T03:54:03;100497.28;;;0.87;100.00
59110;BME280;44895;47.438;18.978;2023-03-18T03:57:07;100498.94;;;0.88;100.00
59110;BME280;44895;47.438;18.978;2023-03-18T04:00:12;100496.56;;;0.80;100.00
59110;BME280;44895;47.438;18.978;2023-03-18T04:03:24;100499.47;;;0.72;100.00
59110;BME280;44895;47.438;18.978;2023-03-18T04:06:28;100500.13;;;0.67;100.00
59110;BME280;44895;47.438;18.978;2023-03-18T04:09:37;100508.84;;;0.81;100.00
59110;BME280;44895;47.438;18.978;2023-03-18T04:12:41;100494.78;;;0.67;100.00
59110;BME280;44895;47.438;18.978;2023-03-18T04:15:20;100503.38;;;0.44;100.00
59110;BME280;44895;47.438;18.978;2023-03-18T04:18:26;100501.59;;;0.63;100.00
59110;BME280;44895;47.438;18.978;2023-03-18T04:21:30;100505.81;;;0.52;100.00
59110;BME280;44895;47.438;18.978;2023-03-18T04:24:34;100513.00;;;0.52;100.00
59110;BME280;44895;47.438;18.978;2023-03-18T04:27:37;100508.56;;;0.39;100.00
59110;BME280;44895;47.438;18.978;2023-03-18T04:30:44;100508.81;;;0.62;100.00
59110;BME280;44895;47.438;18.978;2023-03-18T04:33:53;100507.41;;;0.60;100.00
59110;BME280;44895;47.438;18.978;2023-03-18T04:36:57;100507.88;;;0.50;100.00
59110;BME280;44895;47.438;18.978;2023-03-18T04:40:03;100509.19;;;0.41;100.00
59110;BME280;44895;47.438;18.978;2023-03-18T04:43:10;100508.38;;;0.65;100.00
59110;BME280;44895;47.438;18.978;2023-03-18T04:46:14;100520.53;;;0.61;100.00
59110;BME280;44895;47.438;18.978;2023-03-18T04:49:21;100517.88;;;0.61;100.00
59110;BME280;44895;47.438;18.978;2023-03-18T04:52:24;100524.00;;;0.94;100.00
59110;BME280;44895;47.438;18.978;2023-03-18T04:55:29;100523.50;;;0.78;100.00
59110;BME280;44895;47.438;18.978;2023-03-18T04:58:34;100530.09;;;0.76;100.00
59110;BME280;44895;47.438;18.978;2023-03-18T05:01:48;100530.44;;;0.86;100.00
59110;BME280;44895;47.438;18.978;2023-03-18T05:04:53;100528.41;;;1.07;100.00
59110;BME280;44895;47.438;18.978;2023-03-18T05:07:57;100526.44;;;1.21;100.00
59110;BME280;44895;47.438;18.978;2023-03-18T05:11:01;100528.03;;;1.47;100.00
59110;BME280;44895;47.438;18.978;2023-03-18T05:14:09;100528.63;;;1.68;98.41
59110;BME280;44895;47.438;18.978;2023-03-18T05:17:18;100529.19;;;1.70;96.88
59110;BME280;44895;47.438;18.978;2023-03-18T05:20:31;100530.56;;;1.60;96.01
59110;BME280;44895;47.438;18.978;2023-03-18T05:23:36;100534.25;;;1.59;96.00
59110;BME280;44895;47.438;18.978;2023-03-18T05:26:40;100539.47;;;1.73;96.01
59110;BME280;44895;47.438;18.978;2023-03-18T05:29:45;100532.78;;;2.01;92.25
59110;BME280;44895;47.438;18.978;2023-03-18T05:32:53;100535.13;;;2.09;90.50
59110;BME280;44895;47.438;18.978;2023-03-18T05:36:05;100531.78;;;2.14;88.63
59110;BME280;44895;47.438;18.978;2023-03-18T05:39:13;100541.22;;;2.47;92.61
59110;BME280;44895;47.438;18.978;2023-03-18T05:42:17;100537.31;;;2.73;89.54
59110;BME280;44895;47.438;18.978;2023-03-18T05:45:24;100545.56;;;2.59;93.82
59110;BME280;44895;47.438;18.978;2023-03-18T05:48:31;100549.47;;;2.87;90.39
59110;BME280;44895;47.438;18.978;2023-03-18T05:51:40;100547.63;;;3.00;85.42
59110;BME280;44895;47.438;18.978;2023-03-18T05:54:47;100548.94;;;3.21;84.06
59110;BME280;44895;47.438;18.978;2023-03-18T05:57:57;100551.88;;;3.19;85.86
59110;BME280;44895;47.438;18.978;2023-03-18T06:01:02;100548.47;;;3.12;85.96
59110;BME280;44895;47.438;18.978;2023-03-18T06:04:06;100551.88;;;3.19;85.59
59110;BME280;44895;47.438;18.978;2023-03-18T06:07:11;100562.38;;;3.45;83.12
59110;BME280;44895;47.438;18.978;2023-03-18T06:13:20;100560.09;;;3.77;79.21
59110;BME280;44895;47.438;18.978;2023-03-18T06:16:23;100558.47;;;3.76;77.17
59110;BME280;44895;47.438;18.978;2023-03-18T06:19:30;100562.63;;;3.96;77.24
59110;BME280;44895;47.438;18.978;2023-03-18T06:22:34;100560.06;;;4.30;75.26
59110;BME280;44895;47.438;18.978;2023-03-18T06:25:39;100558.81;;;4.49;74.41
59110;BME280;44895;47.438;18.978;2023-03-18T06:28:44;100567.28;;;4.41;73.15
59110;BME280;44895;47.438;18.978;2023-03-18T06:31:48;100567.22;;;4.24;70.05
59110;BME280;44895;47.438;18.978;2023-03-18T06:34:57;100564.50;;;5.16;70.16
59110;BME280;44895;47.438;18.978;2023-03-18T06:38:01;100560.47;;;8.76;61.09
59110;BME280;44895;47.438;18.978;2023-03-18T06:41:06;100557.16;;;10.22;53.18
59110;BME280;44895;47.438;18.978;2023-03-18T06:44:15;100547.00;;;10.83;50.82
59110;BME280;44895;47.438;18.978;2023-03-18T06:47:19;100564.94;;;12.20;46.91
59110;BME280;44895;47.438;18.978;2023-03-18T06:50:30;100553.78;;;13.40;42.55
59110;BME280;44895;47.438;18.978;2023-03-18T06:53:37;100555.31;;;14.66;41.12
59110;BME280;44895;47.438;18.978;2023-03-18T06:56:41;100558.44;;;14.60;38.78
59110;BME280;44895;47.438;18.978;2023-03-18T06:59:51;100546.19;;;16.06;38.26
59110;BME280;44895;47.438;18.978;2023-03-18T07:02:56;100560.13;;;17.53;34.87
59110;BME280;44895;47.438;18.978;2023-03-18T07:06:03;100555.78;;;17.82;33.14
59110;BME280;44895;47.438;18.978;2023-03-18T07:09:08;100547.31;;;19.02;34.09
59110;BME280;44895;47.438;18.978;2023-03-18T07:12:14;100561.34;;;17.73;33.43
59110;BME280;44895;47.438;18.978;2023-03-18T07:15:20;100549.25;;;19.47;32.18
59110;BME280;44895;47.438;18.978;2023-03-18T07:18:26;100560.16;;;18.98;33.04
59110;BME280;44895;47.438;18.978;2023-03-18T07:21:30;100564.00;;;18.21;33.52
59110;BME280;44895;47.438;18.978;2023-03-18T07:24:33;100565.94;;;18.63;33.32
59110;BME280;44895;47.438;18.978;2023-03-18T07:27:38;100555.81;;;19.67;31.01
59110;BME280;44895;47.438;18.978;2023-03-18T07:30:42;100551.91;;;20.06;31.79
59110;BME280;44895;47.438;18.978;2023-03-18T07:33:46;100549.44;;;20.69;30.77
59110;BME280;44895;47.438;18.978;2023-03-18T07:36:49;100553.72;;;19.52;30.41
59110;BME280;44895;47.438;18.978;2023-03-18T07:39:53;100565.47;;;18.18;32.42
59110;BME280;44895;47.438;18.978;2023-03-18T07:42:56;100559.09;;;20.35;30.27
59110;BME280;44895;47.438;18.978;2023-03-18T07:46:00;100584.13;;;15.18;35.39
59110;BME280;44895;47.438;18.978;2023-03-18T07:49:04;100595.31;;;13.04;36.94
59110;BME280;44895;47.438;18.978;2023-03-18T07:52:07;100592.84;;;12.50;39.01
59110;BME280;44895;47.438;18.978;2023-03-18T07:55:11;100588.19;;;13.69;36.94
59110;BME280;44895;47.438;18.978;2023-03-18T07:58:15;100592.22;;;13.58;37.10
59110;BME280;44895;47.438;18.978;2023-03-18T08:01:18;100588.19;;;13.97;37.19
59110;BME280;44895;47.438;18.978;2023-03-18T08:04:23;100588.00;;;16.64;34.21
59110;BME280;44895;47.438;18.978;2023-03-18T08:07:27;100582.19;;;16.83;32.78
59110;BME280;44895;47.438;18.978;2023-03-18T08:10:31;100578.44;;;15.69;35.86
59110;BME280;44895;47.438;18.978;2023-03-18T08:13:35;100564.09;;;15.72;35.88
59110;BME280;44895;47.438;18.978;2023-03-18T08:16:39;100578.88;;;16.02;35.88
59110;BME280;44895;47.438;18.978;2023-03-18T08:19:42;100579.13;;;14.89;38.09
59110;BME280;44895;47.438;18.978;2023-03-18T08:22:45;100577.81;;;14.86;38.74
59110;BME280;44895;47.438;18.978;2023-03-18T08:25:49;100580.34;;;15.59;37.03
59110;BME280;44895;47.438;18.978;2023-03-18T08:28:53;100578.88;;;14.62;37.06
59110;BME280;44895;47.438;18.978;2023-03-18T08:31:56;100577.56;;;15.51;36.55
59110;BME280;44895;47.438;18.978;2023-03-18T08:35:01;100575.16;;;14.58;37.01
59110;BME280;44895;47.438;18.978;2023-03-18T08:38:04;100584.63;;;11.88;39.78
59110;BME280;44895;47.438;18.978;2023-03-18T08:41:09;100577.47;;;14.14;39.83
59110;BME280;44895;47.438;18.978;2023-03-18T08:44:13;100578.78;;;13.61;38.66
59110;BME280;44895;47.438;18.978;2023-03-18T08:47:17;100574.44;;;13.13;38.81
59110;BME280;44895;47.438;18.978;2023-03-18T08:50:21;100578.34;;;13.07;39.45
59110;BME280;44895;47.438;18.978;2023-03-18T08:53:25;100569.50;;;13.90;39.82
59110;BME280;44895;47.438;18.978;2023-03-18T08:56:28;100575.97;;;13.94;38.59
59110;BME280;44895;47.438;18.978;2023-03-18T08:59:32;100574.28;;;13.70;39.65
59110;BME280;44895;47.438;18.978;2023-03-18T09:02:35;100579.28;;;14.33;38.00
59110;BME280;44895;47.438;18.978;2023-03-18T09:05:39;100574.97;;;14.04;38.34
59110;BME280;44895;47.438;18.978;2023-03-18T09:08:43;100569.38;;;14.23;38.09
59110;BME280;44895;47.438;18.978;2023-03-18T09:11:46;100568.06;;;14.94;37.31
59110;BME280;44895;47.438;18.978;2023-03-18T09:14:50;100561.56;;;15.12;36.64
59110;BME280;44895;47.438;18.978;2023-03-18T09:17:54;100573.00;;;13.49;37.43
59110;BME280;44895;47.438;18.978;2023-03-18T09:20:58;100550.91;;;15.33;36.13
59110;BME280;44895;47.438;18.978;2023-03-18T09:24:02;100556.31;;;15.88;36.49
59110;BME280;44895;47.438;18.978;2023-03-18T09:27:06;100549.78;;;16.41;35.42
59110;BME280;44895;47.438;18.978;2023-03-18T09:30:10;100549.44;;;16.60;35.87
59110;BME280;44895;47.438;18.978;2023-03-18T09:33:14;100545.03;;;15.18;36.35
59110;BME280;44895;47.438;18.978;2023-03-18T09:36:18;100537.84;;;16.28;36.81
59110;BME280;44895;47.438;18.978;2023-03-18T09:39:22;100541.09;;;15.01;36.14
59110;BME280;44895;47.438;18.978;2023-03-18T09:42:36;100541.69;;;16.19;36.13
59110;BME280;44895;47.438;18.978;2023-03-18T09:49:04;100533.72;;;14.28;36.54
59110;BME280;44895;47.438;18.978;2023-03-18T09:55:24;100539.97;;;14.06;38.00
59110;BME280;44895;47.438;18.978;2023-03-18T09:58:36;100537.91;;;14.12;37.76
59110;BME280;44895;47.438;18.978;2023-03-18T10:01:45;100537.47;;;13.21;38.64
59110;BME280;44895;47.438;18.978;2023-03-18T10:04:57;100543.00;;;13.91;39.16
59110;BME280;44895;47.438;18.978;2023-03-18T10:08:07;100531.66;;;13.28;38.96
59110;BME280;44895;47.438;18.978;2023-03-18T10:17:29;100527.34;;;13.96;38.76
59110;BME280;44895;47.438;18.978;2023-03-18T10:23:46;100542.00;;;13.12;39.00
59110;BME280;44895;47.438;18.978;2023-03-18T10:30:30;100526.66;;;13.16;40.17
59110;BME280;44895;47.438;18.978;2023-03-18T10:37:10;100514.81;;;13.67;39.54
59110;BME280;44895;47.438;18.978;2023-03-18T10:40:20;100515.97;;;13.33;40.66
59110;BME280;44895;47.438;18.978;2023-03-18T10:43:25;100522.41;;;13.57;40.18
59110;BME280;44895;47.438;18.978;2023-03-18T10:46:30;100522.63;;;13.13;40.14
59110;BME280;44895;47.438;18.978;2023-03-18T10:49:36;100515.44;;;13.78;40.85
59110;BME280;44895;47.438;18.978;2023-03-18T10:55:58;100494.41;;;13.37;40.90
59110;BME280;44895;47.438;18.978;2023-03-18T10:59:10;100489.94;;;13.41;41.20
59110;BME280;44895;47.438;18.978;2023-03-18T11:02:16;100493.56;;;13.92;42.64
59110;BME280;44895;47.438;18.978;2023-03-18T11:05:24;100490.03;;;13.36;41.87
59110;BME280;44895;47.438;18.978;2023-03-18T11:08:36;100475.13;;;13.98;41.31
59110;BME280;44895;47.438;18.978;2023-03-18T11:11:44;100486.72;;;13.39;41.85
59110;BME280;44895;47.438;18.978;2023-03-18T11:14:49;100470.56;;;13.57;41.39
59110;BME280;44895;47.438;18.978;2023-03-18T11:17:53;100469.34;;;13.49;41.33
59110;BME280;44895;47.438;18.978;2023-03-18T11:21:00;100476.09;;;13.65;41.58
59110;BME280;44895;47.438;18.978;2023-03-18T11:24:19;100472.06;;;13.49;41.23
59110;BME280;44895;47.438;18.978;2023-03-18T11:27:38;100456.09;;;14.07;41.48
59110;BME280;44895;47.438;18.978;2023-03-18T11:30:46;100443.00;;;13.95;40.77
59110;BME280;44895;47.438;18.978;2023-03-18T11:33:55;100444.34;;;14.20;41.42
59110;BME280;44895;47.438;18.978;2023-03-18T11:37:00;100439.69;;;14.43;40.80
59110;BME280;44895;47.438;18.978;2023-03-18T11:43:20;100436.31;;;14.46;41.21
59110;BME280;44895;47.438;18.978;2023-03-18T11:46:25;100433.53;;;14.15;40.33
59110;BME280;44895;47.438;18.978;2023-03-18T11:49:30;100424.84;;;14.35;41.22
59110;BME280;44895;47.438;18.978;2023-03-18T11:52:39;100425.91;;;14.71;40.09
59110;BME280;44895;47.438;18.978;2023-03-18T11:55:51;100425.47;;;15.18;41.37
59110;BME280;44895;47.438;18.978;2023-03-18T11:58:39;100432.72;;;14.82;40.32
59110;BME280;44895;47.438;18.978;2023-03-18T12:05:18;100420.88;;;14.64;40.71
59110;BME280;44895;47.438;18.978;2023-03-18T12:08:30;100419.06;;;14.37;40.03
59110;BME280;44895;47.438;18.978;2023-03-18T12:14:45;100412.84;;;14.00;40.16
59110;BME280;44895;47.438;18.978;2023-03-18T12:17:57;100415.66;;;13.72;40.89
59110;BME280;44895;47.438;18.978;2023-03-18T12:27:47;100408.56;;;14.08;41.32
59110;BME280;44895;47.438;18.978;2023-03-18T12:34:02;100399.13;;;13.91;42.14
59110;BME280;44895;47.438;18.978;2023-03-18T12:37:23;100409.00;;;13.64;42.15
59110;BME280;44895;47.438;18.978;2023-03-18T12:46:54;100389.47;;;14.30;43.43
59110;BME280;44895;47.438;18.978;2023-03-18T12:56:21;100401.53;;;13.93;42.57
59110;BME280;44895;47.438;18.978;2023-03-18T12:59:29;100390.97;;;13.77;43.04
59110;BME280;44895;47.438;18.978;2023-03-18T13:02:38;100402.13;;;13.67;43.36
59110;BME280;44895;47.438;18.978;2023-03-18T13:12:31;100406.19;;;13.28;43.57
59110;BME280;44895;47.438;18.978;2023-03-18T13:18:45;100402.59;;;13.69;43.78
59110;BME280;44895;47.438;18.978;2023-03-18T13:25:37;100401.91;;;13.63;43.57
59110;BME280;44895;47.438;18.978;2023-03-18T13:45:22;100372.28;;;13.93;43.08
59110;BME280;44895;47.438;18.978;2023-03-18T13:48:29;100369.59;;;13.57;42.53
59110;BME280;44895;47.438;18.978;2023-03-18T13:54:39;100366.16;;;13.51;42.75
59110;BME280;44895;47.438;18.978;2023-03-18T13:57:47;100366.13;;;14.01;43.03
59110;BME280;44895;47.438;18.978;2023-03-18T14:07:26;100358.19;;;14.14;42.90
59110;BME280;44895;47.438;18.978;2023-03-18T14:10:30;100351.34;;;14.25;42.80
59110;BME280;44895;47.438;18.978;2023-03-18T14:13:33;100351.16;;;14.22;42.87
59110;BME280;44895;47.438;18.978;2023-03-18T14:19:52;100346.16;;;14.24;42.33
59110;BME280;44895;47.438;18.978;2023-03-18T14:22:56;100339.31;;;14.35;42.71
59110;BME280;44895;47.438;18.978;2023-03-18T14:26:20;100330.72;;;14.42;42.81
59110;BME280;44895;47.438;18.978;2023-03-18T14:29:28;100331.25;;;14.30;42.95
59110;BME280;44895;47.438;18.978;2023-03-18T14:32:37;100318.91;;;14.32;43.12
59110;BME280;44895;47.438;18.978;2023-03-18T14:35:53;100321.09;;;14.22;43.45
59110;BME280;44895;47.438;18.978;2023-03-18T14:39:00;100326.16;;;14.37;42.51
59110;BME280;44895;47.438;18.978;2023-03-18T14:42:10;100319.19;;;13.99;43.51
59110;BME280;44895;47.438;18.978;2023-03-18T14:45:17;100327.16;;;13.87;42.14
59110;BME280;44895;47.438;18.978;2023-03-18T14:48:29;100325.22;;;13.88;43.00
59110;BME280;44895;47.438;18.978;2023-03-18T14:51:32;100323.03;;;13.98;42.87
59110;BME280;44895;47.438;18.978;2023-03-18T14:54:37;100319.63;;;13.93;43.46
59110;BME280;44895;47.438;18.978;2023-03-18T14:57:45;100327.94;;;13.88;44.08
59110;BME280;44895;47.438;18.978;2023-03-18T15:00:50;100316.69;;;13.66;44.21
59110;BME280;44895;47.438;18.978;2023-03-18T15:03:54;100312.84;;;13.67;44.44
59110;BME280;44895;47.438;18.978;2023-03-18T15:07:00;100324.72;;;13.49;44.26
59110;BME280;44895;47.438;18.978;2023-03-18T15:10:07;100316.34;;;13.59;44.87
59110;BME280;44895;47.438;18.978;2023-03-18T15:13:13;100317.75;;;13.57;44.63
59110;BME280;44895;47.438;18.978;2023-03-18T15:16:17;100313.41;;;13.56;45.04
59110;BME280;44895;47.438;18.978;2023-03-18T15:19:22;100309.31;;;13.44;45.82
59110;BME280;44895;47.438;18.978;2023-03-18T15:22:27;100306.38;;;13.41;46.29
59110;BME280;44895;47.438;18.978;2023-03-18T15:25:32;100308.88;;;13.51;46.17
59110;BME280;44895;47.438;18.978;2023-03-18T15:28:36;100315.31;;;13.55;46.19
59110;BME280;44895;47.438;18.978;2023-03-18T15:31:41;100302.63;;;13.50;46.52
59110;BME280;44895;47.438;18.978;2023-03-18T15:34:49;100309.72;;;13.10;46.52
59110;BME280;44895;47.438;18.978;2023-03-18T15:38:10;100318.22;;;13.08;46.78
59110;BME280;44895;47.438;18.978;2023-03-18T15:41:15;100315.25;;;13.18;47.26
59110;BME280;44895;47.438;18.978;2023-03-18T15:44:28;100323.41;;;13.32;46.85
59110;BME280;44895;47.438;18.978;2023-03-18T15:47:33;100318.59;;;13.29;47.00
59110;BME280;44895;47.438;18.978;2023-03-18T15:50:36;100326.47;;;13.17;47.31
59110;BME280;44895;47.438;18.978;2023-03-18T15:53:55;100321.66;;;13.14;47.43
59110;BME280;44895;47.438;18.978;2023-03-18T15:56:58;100329.22;;;13.03;47.59
59110;BME280;44895;47.438;18.978;2023-03-18T16:00:12;100333.88;;;13.02;47.82
59110;BME280;44895;47.438;18.978;2023-03-18T16:03:17;100339.72;;;12.96;48.22
59110;BME280;44895;47.438;18.978;2023-03-18T16:06:21;100346.78;;;12.97;48.44
59110;BME280;44895;47.438;18.978;2023-03-18T16:09:24;100348.09;;;12.99;48.09
59110;BME280;44895;47.438;18.978;2023-03-18T16:12:28;100345.16;;;12.96;48.27
59110;BME280;44895;47.438;18.978;2023-03-18T16:15:33;100342.66;;;12.99;48.34
59110;BME280;44895;47.438;18.978;2023-03-18T16:18:37;100348.19;;;12.80;48.53
59110;BME280;44895;47.438;18.978;2023-03-18T16:21:41;100342.66;;;12.85;49.09
59110;BME280;44895;47.438;18.978;2023-03-18T16:24:45;100348.31;;;12.75;48.63
59110;BME280;44895;47.438;18.978;2023-03-18T16:27:49;100345.66;;;12.70;49.09
59110;BME280;44895;47.438;18.978;2023-03-18T16:30:53;100342.19;;;12.36;49.72
59110;BME280;44895;47.438;18.978;2023-03-18T16:34:00;100352.06;;;12.32;50.00
59110;BME280;44895;47.438;18.978;2023-03-18T16:37:03;100349.66;;;12.45;50.32
59110;BME280;44895;47.438;18.978;2023-03-18T16:40:14;100350.81;;;12.24;50.55
59110;BME280;44895;47.438;18.978;2023-03-18T16:43:20;100350.75;;;12.30;50.39
59110;BME280;44895;47.438;18.978;2023-03-18T16:46:24;100350.59;;;12.21;50.75
59110;BME280;44895;47.438;18.978;2023-03-18T16:49:30;100356.28;;;12.24;51.30
59110;BME280;44895;47.438;18.978;2023-03-18T16:52:35;100360.22;;;11.99;51.88
59110;BME280;44895;47.438;18.978;2023-03-18T16:55:40;100357.53;;;11.94;51.74
59110;BME280;44895;47.438;18.978;2023-03-18T16:58:44;100359.84;;;11.87;51.94
59110;BME280;44895;47.438;18.978;2023-03-18T17:01:48;100357.88;;;11.73;52.14
59110;BME280;44895;47.438;18.978;2023-03-18T17:04:51;100360.44;;;11.84;52.33
59110;BME280;44895;47.438;18.978;2023-03-18T17:07:55;100362.34;;;11.64;53.01
59110;BME280;44895;47.438;18.978;2023-03-18T17:10:59;100361.44;;;11.50;53.61
59110;BME280;44895;47.438;18.978;2023-03-18T17:14:03;100354.38;;;11.49;53.54
59110;BME280;44895;47.438;18.978;2023-03-18T17:17:17;100361.91;;;11.57;53.32
59110;BME280;44895;47.438;18.978;2023-03-18T17:20:24;100368.59;;;11.46;53.80
59110;BME280;44895;47.438;18.978;2023-03-18T17:23:28;100362.38;;;11.40;54.74
59110;BME280;44895;47.438;18.978;2023-03-18T17:26:32;100369.75;;;11.39;55.63
59110;BME280;44895;47.438;18.978;2023-03-18T17:29:37;100370.41;;;11.31;55.40
59110;BME280;44895;47.438;18.978;2023-03-18T17:32:41;100367.53;;;11.22;55.84
59110;BME280;44895;47.438;18.978;2023-03-18T17:35:45;100372.22;;;10.92;56.29
59110;BME280;44895;47.438;18.978;2023-03-18T17:38:48;100368.03;;;11.00;56.97
59110;BME280;44895;47.438;18.978;2023-03-18T17:41:58;100376.72;;;11.02;57.03
59110;BME280;44895;47.438;18.978;2023-03-18T17:45:07;100369.78;;;10.67;58.91
59110;BME280;44895;47.438;18.978;2023-03-18T17:48:20;100376.09;;;10.57;59.94
59110;BME280;44895;47.438;18.978;2023-03-18T17:51:24;100370.56;;;10.67;59.54
59110;BME280;44895;47.438;18.978;2023-03-18T17:54:29;100377.63;;;10.68;59.51
59110;BME280;44895;47.438;18.978;2023-03-18T17:57:35;100372.34;;;10.53;60.22